sensor_id;sensor_type;location;lat;lon;timestamp;temperature;humidity
18575;DHT22;9417;16.484;102.872;2024-01-15T00:01:43;21.40;87.30
18575;DHT22;9417;16.484;102.872;2024-01-15T00:03:50;21.40;87.40
18575;DHT22;9417;16.484;102.872;2024-01-15T00:05:59;21.40;87.50
18575;DHT22;9417;16.484;102.872;2024-01-15T00:08:07;21.50;87.30
18575;DHT22;9417;16.484;102.872;2024-01-15T00:10:14;21.40;87.20
18575;DHT22;9417;16.484;102.872;2024-01-15T00:12:21;21.50;87.30
18575;DHT22;9417;16.484;102.872;2024-01-15T00:14:28;21.50;87.40
18575;DHT22;9417;16.484;102.872;2024-01-15T00:16:36;21.50;87.30
18575;DHT22;9417;16.484;102.872;2024-01-15T00:18:43;21.50;87.50
18575;DHT22;9417;16.484;102.872;2024-01-15T00:20:51;21.50;87.50
18575;DHT22;9417;16.484;102.872;2024-01-15T00:23:00;21.60;87.80
18575;DHT22;9417;16.484;102.872;2024-01-15T00:25:08;21.60;87.70
18575;DHT22;9417;16.484;102.872;2024-01-15T00:27:15;21.60;87.50
18575;DHT22;9417;16.484;102.872;2024-01-15T00:29:23;21.70;87.50
18575;DHT22;9417;16.484;102.872;2024-01-15T00:31:31;21.60;87.00
18575;DHT22;9417;16.484;102.872;2024-01-15T00:33:38;21.60;87.00
18575;DHT22;9417;16.484;102.872;2024-01-15T00:35:45;21.60;87.00
18575;DHT22;9417;16.484;102.872;2024-01-15T00:37:52;21.60;87.10
18575;DHT22;9417;16.484;102.872;2024-01-15T00:40:02;21.60;87.20
18575;DHT22;9417;16.484;102.872;2024-01-15T00:42:09;21.60;87.20
18575;DHT22;9417;16.484;102.872;2024-01-15T00:44:15;21.60;87.50
18575;DHT22;9417;16.484;102.872;2024-01-15T00:46:23;21.60;87.40
18575;DHT22;9417;16.484;102.872;2024-01-15T00:48:30;21.70;87.20
18575;DHT22;9417;16.484;102.872;2024-01-15T00:50:39;21.70;87.50
18575;DHT22;9417;16.484;102.872;2024-01-15T00:52:46;21.70;87.60
18575;DHT22;9417;16.484;102.872;2024-01-15T00:54:54;21.80;87.70
18575;DHT22;9417;16.484;102.872;2024-01-15T00:57:06;21.80;87.50
18575;DHT22;9417;16.484;102.872;2024-01-15T00:59:12;21.80;87.70
18575;DHT22;9417;16.484;102.872;2024-01-15T01:01:19;21.90;88.20
18575;DHT22;9417;16.484;102.872;2024-01-15T01:03:27;21.90;87.70
18575;DHT22;9417;16.484;102.872;2024-01-15T01:05:35;22.00;87.20
18575;DHT22;9417;16.484;102.872;2024-01-15T01:07:42;22.10;86.40
18575;DHT22;9417;16.484;102.872;2024-01-15T01:09:49;22.20;85.90
18575;DHT22;9417;16.484;102.872;2024-01-15T01:11:57;22.20;85.70
18575;DHT22;9417;16.484;102.872;2024-01-15T01:14:06;22.40;85.20
18575;DHT22;9417;16.484;102.872;2024-01-15T01:16:13;22.40;84.20
18575;DHT22;9417;16.484;102.872;2024-01-15T01:18:19;22.50;83.90
18575;DHT22;9417;16.484;102.872;2024-01-15T01:20:27;22.60;83.40
18575;DHT22;9417;16.484;102.872;2024-01-15T01:22:35;22.70;83.40
18575;DHT22;9417;16.484;102.872;2024-01-15T01:24:42;22.70;82.90
18575;DHT22;9417;16.484;102.872;2024-01-15T01:26:50;22.80;82.50
18575;DHT22;9417;16.484;102.872;2024-01-15T01:28:56;22.90;81.90
18575;DHT22;9417;16.484;102.872;2024-01-15T01:31:05;23.00;81.60
18575;DHT22;9417;16.484;102.872;2024-01-15T01:33:13;23.10;81.80
18575;DHT22;9417;16.484;102.872;2024-01-15T01:35:21;23.20;81.00
18575;DHT22;9417;16.484;102.872;2024-01-15T01:37:26;23.20;80.20
18575;DHT22;9417;16.484;102.872;2024-01-15T01:39:34;23.20;79.60
18575;DHT22;9417;16.484;102.872;2024-01-15T01:41:40;23.40;80.10
18575;DHT22;9417;16.484;102.872;2024-01-15T01:43:48;23.40;79.40
18575;DHT22;9417;16.484;102.872;2024-01-15T01:45:56;23.50;79.20
18575;DHT22;9417;16.484;102.872;2024-01-15T01:48:07;23.60;78.70
18575;DHT22;9417;16.484;102.872;2024-01-15T01:50:15;23.70;78.10
18575;DHT22;9417;16.484;102.872;2024-01-15T01:52:23;23.80;78.10
18575;DHT22;9417;16.484;102.872;2024-01-15T01:54:31;23.90;78.10
18575;DHT22;9417;16.484;102.872;2024-01-15T01:56:39;24.00;77.40
18575;DHT22;9417;16.484;102.872;2024-01-15T01:58:48;24.10;76.60
18575;DHT22;9417;16.484;102.872;2024-01-15T02:00:55;24.20;76.30
18575;DHT22;9417;16.484;102.872;2024-01-15T02:03:06;24.30;75.70
18575;DHT22;9417;16.484;102.872;2024-01-15T02:05:14;24.40;75.50
18575;DHT22;9417;16.484;102.872;2024-01-15T02:07:24;24.50;74.70
18575;DHT22;9417;16.484;102.872;2024-01-15T02:09:32;24.60;74.30
18575;DHT22;9417;16.484;102.872;2024-01-15T02:11:39;24.60;73.70
18575;DHT22;9417;16.484;102.872;2024-01-15T02:13:47;24.70;73.80
18575;DHT22;9417;16.484;102.872;2024-01-15T02:15:54;24.70;72.80
18575;DHT22;9417;16.484;102.872;2024-01-15T02:18:02;24.80;72.80
18575;DHT22;9417;16.484;102.872;2024-01-15T02:20:11;24.90;72.30
18575;DHT22;9417;16.484;102.872;2024-01-15T02:22:18;24.90;71.40
18575;DHT22;9417;16.484;102.872;2024-01-15T02:24:27;25.00;71.30
18575;DHT22;9417;16.484;102.872;2024-01-15T02:26:35;25.00;71.40
18575;DHT22;9417;16.484;102.872;2024-01-15T02:28:43;25.10;71.00
18575;DHT22;9417;16.484;102.872;2024-01-15T02:30:51;25.20;71.10
18575;DHT22;9417;16.484;102.872;2024-01-15T02:32:59;25.20;70.40
18575;DHT22;9417;16.484;102.872;2024-01-15T02:35:06;25.30;70.30
18575;DHT22;9417;16.484;102.872;2024-01-15T02:37:14;25.40;70.50
18575;DHT22;9417;16.484;102.872;2024-01-15T02:39:21;25.40;69.80
18575;DHT22;9417;16.484;102.872;2024-01-15T02:41:30;25.50;69.90
18575;DHT22;9417;16.484;102.872;2024-01-15T02:43:37;25.60;69.90
18575;DHT22;9417;16.484;102.872;2024-01-15T02:45:44;25.70;69.70
18575;DHT22;9417;16.484;102.872;2024-01-15T02:47:52;25.90;69.60
18575;DHT22;9417;16.484;102.872;2024-01-15T02:49:59;25.90;69.10
18575;DHT22;9417;16.484;102.872;2024-01-15T02:52:07;26.10;68.30
18575;DHT22;9417;16.484;102.872;2024-01-15T02:54:14;26.10;67.90
18575;DHT22;9417;16.484;102.872;2024-01-15T02:56:20;26.20;66.50
18575;DHT22;9417;16.484;102.872;2024-01-15T02:58:30;26.30;65.80
18575;DHT22;9417;16.484;102.872;2024-01-15T03:00:37;26.30;65.30
18575;DHT22;9417;16.484;102.872;2024-01-15T03:02:45;26.30;65.90
18575;DHT22;9417;16.484;102.872;2024-01-15T03:04:52;26.30;64.90
18575;DHT22;9417;16.484;102.872;2024-01-15T03:06:59;26.30;65.10
18575;DHT22;9417;16.484;102.872;2024-01-15T03:09:06;26.30;66.20
18575;DHT22;9417;16.484;102.872;2024-01-15T03:11:14;26.40;65.70
18575;DHT22;9417;16.484;102.872;2024-01-15T03:13:21;26.30;65.20
18575;DHT22;9417;16.484;102.872;2024-01-15T03:15:30;26.30;65.30
18575;DHT22;9417;16.484;102.872;2024-01-15T03:17:37;26.40;65.80
18575;DHT22;9417;16.484;102.872;2024-01-15T03:19:44;26.40;64.90
18575;DHT22;9417;16.484;102.872;2024-01-15T03:21:52;26.50;64.90
18575;DHT22;9417;16.484;102.872;2024-01-15T03:24:00;26.60;64.80
18575;DHT22;9417;16.484;102.872;2024-01-15T03:26:07;26.60;65.10
18575;DHT22;9417;16.484;102.872;2024-01-15T03:28:14;26.70;64.40
18575;DHT22;9417;16.484;102.872;2024-01-15T03:30:22;26.70;64.50
18575;DHT22;9417;16.484;102.872;2024-01-15T03:32:31;26.80;62.90
18575;DHT22;9417;16.484;102.872;2024-01-15T03:34:38;26.80;63.40
18575;DHT22;9417;16.484;102.872;2024-01-15T03:36:46;26.90;64.30
18575;DHT22;9417;16.484;102.872;2024-01-15T03:38:53;27.00;63.60
18575;DHT22;9417;16.484;102.872;2024-01-15T03:41:00;27.10;63.10
18575;DHT22;9417;16.484;102.872;2024-01-15T03:43:07;27.10;63.20
18575;DHT22;9417;16.484;102.872;2024-01-15T03:45:14;27.20;62.90
18575;DHT22;9417;16.484;102.872;2024-01-15T03:47:22;27.30;62.00
18575;DHT22;9417;16.484;102.872;2024-01-15T03:49:30;27.30;62.50
18575;DHT22;9417;16.484;102.872;2024-01-15T03:51:37;27.30;61.70
18575;DHT22;9417;16.484;102.872;2024-01-15T03:53:45;27.30;61.60
18575;DHT22;9417;16.484;102.872;2024-01-15T03:55:52;27.30;61.50
18575;DHT22;9417;16.484;102.872;2024-01-15T03:57:58;27.20;61.30
18575;DHT22;9417;16.484;102.872;2024-01-15T04:00:08;27.20;62.10
18575;DHT22;9417;16.484;102.872;2024-01-15T04:02:16;27.30;62.00
18575;DHT22;9417;16.484;102.872;2024-01-15T04:04:23;27.40;61.50
18575;DHT22;9417;16.484;102.872;2024-01-15T04:06:31;27.50;61.10
18575;DHT22;9417;16.484;102.872;2024-01-15T04:08:38;27.50;60.90
18575;DHT22;9417;16.484;102.872;2024-01-15T04:10:46;27.50;60.70
18575;DHT22;9417;16.484;102.872;2024-01-15T04:12:53;27.50;60.40
18575;DHT22;9417;16.484;102.872;2024-01-15T04:15:00;27.70;60.60
18575;DHT22;9417;16.484;102.872;2024-01-15T04:17:07;27.70;60.20
18575;DHT22;9417;16.484;102.872;2024-01-15T04:19:14;27.80;59.20
18575;DHT22;9417;16.484;102.872;2024-01-15T04:21:22;27.70;59.40
18575;DHT22;9417;16.484;102.872;2024-01-15T04:23:31;27.80;59.30
18575;DHT22;9417;16.484;102.872;2024-01-15T04:25:38;27.80;58.20
18575;DHT22;9417;16.484;102.872;2024-01-15T04:27:47;27.90;58.10
18575;DHT22;9417;16.484;102.872;2024-01-15T04:29:55;27.90;58.80
18575;DHT22;9417;16.484;102.872;2024-01-15T04:32:02;28.00;57.90
18575;DHT22;9417;16.484;102.872;2024-01-15T04:34:07;28.00;57.70
18575;DHT22;9417;16.484;102.872;2024-01-15T04:36:15;27.90;57.80
18575;DHT22;9417;16.484;102.872;2024-01-15T04:38:22;28.00;57.80
18575;DHT22;9417;16.484;102.872;2024-01-15T04:40:31;28.00;58.30
18575;DHT22;9417;16.484;102.872;2024-01-15T04:42:38;28.20;57.90
18575;DHT22;9417;16.484;102.872;2024-01-15T04:44:45;28.30;57.60
18575;DHT22;9417;16.484;102.872;2024-01-15T04:46:53;28.40;57.40
18575;DHT22;9417;16.484;102.872;2024-01-15T04:49:00;28.50;56.70
18575;DHT22;9417;16.484;102.872;2024-01-15T04:51:10;28.60;56.50
18575;DHT22;9417;16.484;102.872;2024-01-15T04:53:17;28.60;55.50
18575;DHT22;9417;16.484;102.872;2024-01-15T04:55:24;28.60;55.50
18575;DHT22;9417;16.484;102.872;2024-01-15T04:57:33;28.60;56.10
18575;DHT22;9417;16.484;102.872;2024-01-15T04:59:40;28.60;55.50
18575;DHT22;9417;16.484;102.872;2024-01-15T05:01:47;28.60;55.80
18575;DHT22;9417;16.484;102.872;2024-01-15T05:03:54;28.60;55.80
18575;DHT22;9417;16.484;102.872;2024-01-15T05:06:03;28.60;56.20
18575;DHT22;9417;16.484;102.872;2024-01-15T05:08:11;28.80;55.90
18575;DHT22;9417;16.484;102.872;2024-01-15T05:10:19;29.00;55.70
18575;DHT22;9417;16.484;102.872;2024-01-15T05:12:26;29.00;55.10
18575;DHT22;9417;16.484;102.872;2024-01-15T05:14:35;29.10;55.20
18575;DHT22;9417;16.484;102.872;2024-01-15T05:16:48;29.10;54.70
18575;DHT22;9417;16.484;102.872;2024-01-15T05:18:55;29.10;54.50
18575;DHT22;9417;16.484;102.872;2024-01-15T05:21:02;29.10;54.50
18575;DHT22;9417;16.484;102.872;2024-01-15T05:23:09;29.10;54.10
18575;DHT22;9417;16.484;102.872;2024-01-15T05:25:16;29.20;54.20
18575;DHT22;9417;16.484;102.872;2024-01-15T05:27:23;29.30;54.60
18575;DHT22;9417;16.484;102.872;2024-01-15T05:29:31;29.40;53.60
18575;DHT22;9417;16.484;102.872;2024-01-15T05:31:39;29.50;53.60
18575;DHT22;9417;16.484;102.872;2024-01-15T05:33:47;29.50;53.40
18575;DHT22;9417;16.484;102.872;2024-01-15T05:35:54;29.50;53.00
18575;DHT22;9417;16.484;102.872;2024-01-15T05:38:03;29.50;53.30
18575;DHT22;9417;16.484;102.872;2024-01-15T05:40:11;29.60;52.90
18575;DHT22;9417;16.484;102.872;2024-01-15T05:42:19;29.70;53.10
18575;DHT22;9417;16.484;102.872;2024-01-15T05:44:26;29.80;52.70
18575;DHT22;9417;16.484;102.872;2024-01-15T05:46:34;29.90;52.20
18575;DHT22;9417;16.484;102.872;2024-01-15T05:48:43;29.90;53.00
18575;DHT22;9417;16.484;102.872;2024-01-15T05:50:50;29.90;52.90
18575;DHT22;9417;16.484;102.872;2024-01-15T05:52:58;29.90;53.50
18575;DHT22;9417;16.484;102.872;2024-01-15T05:55:06;29.90;53.00
18575;DHT22;9417;16.484;102.872;2024-01-15T05:57:17;30.00;52.10
18575;DHT22;9417;16.484;102.872;2024-01-15T05:59:23;30.00;51.80
18575;DHT22;9417;16.484;102.872;2024-01-15T06:01:32;29.90;51.80
18575;DHT22;9417;16.484;102.872;2024-01-15T06:03:41;29.90;52.00
18575;DHT22;9417;16.484;102.872;2024-01-15T06:05:48;29.80;53.50
18575;DHT22;9417;16.484;102.872;2024-01-15T06:07:56;29.90;52.20
18575;DHT22;9417;16.484;102.872;2024-01-15T06:10:03;29.80;52.50
18575;DHT22;9417;16.484;102.872;2024-01-15T06:12:11;29.90;52.80
18575;DHT22;9417;16.484;102.872;2024-01-15T06:14:18;29.90;52.30
18575;DHT22;9417;16.484;102.872;2024-01-15T06:16:26;30.10;52.00
18575;DHT22;9417;16.484;102.872;2024-01-15T06:18:33;30.20;52.60
18575;DHT22;9417;16.484;102.872;2024-01-15T06:20:42;30.30;52.10
18575;DHT22;9417;16.484;102.872;2024-01-15T06:22:50;30.30;51.10
18575;DHT22;9417;16.484;102.872;2024-01-15T06:24:58;30.20;52.20
18575;DHT22;9417;16.484;102.872;2024-01-15T06:27:06;30.10;51.40
18575;DHT22;9417;16.484;102.872;2024-01-15T06:29:13;30.10;51.90
18575;DHT22;9417;16.484;102.872;2024-01-15T06:31:20;30.20;51.20
18575;DHT22;9417;16.484;102.872;2024-01-15T06:33:27;30.40;50.80
18575;DHT22;9417;16.484;102.872;2024-01-15T06:35:35;30.50;51.30
18575;DHT22;9417;16.484;102.872;2024-01-15T06:37:44;30.50;50.90
18575;DHT22;9417;16.484;102.872;2024-01-15T06:39:51;30.50;51.00
18575;DHT22;9417;16.484;102.872;2024-01-15T06:41:59;30.50;50.20
18575;DHT22;9417;16.484;102.872;2024-01-15T06:44:07;30.50;51.10
18575;DHT22;9417;16.484;102.872;2024-01-15T06:46:13;30.40;51.50
18575;DHT22;9417;16.484;102.872;2024-01-15T06:48:20;30.30;51.50
18575;DHT22;9417;16.484;102.872;2024-01-15T06:50:26;30.20;51.80
18575;DHT22;9417;16.484;102.872;2024-01-15T06:52:33;30.10;52.20
18575;DHT22;9417;16.484;102.872;2024-01-15T06:54:42;30.00;53.20
18575;DHT22;9417;16.484;102.872;2024-01-15T06:56:50;29.80;53.10
18575;DHT22;9417;16.484;102.872;2024-01-15T06:58:57;29.80;52.20
18575;DHT22;9417;16.484;102.872;2024-01-15T07:01:05;29.80;53.40
18575;DHT22;9417;16.484;102.872;2024-01-15T07:03:12;29.90;52.10
18575;DHT22;9417;16.484;102.872;2024-01-15T07:05:21;29.90;53.20
18575;DHT22;9417;16.484;102.872;2024-01-15T07:07:28;30.00;52.50
18575;DHT22;9417;16.484;102.872;2024-01-15T07:09:34;30.00;52.90
18575;DHT22;9417;16.484;102.872;2024-01-15T07:11:47;30.00;51.90
18575;DHT22;9417;16.484;102.872;2024-01-15T07:13:55;30.00;51.10
18575;DHT22;9417;16.484;102.872;2024-01-15T07:16:02;30.00;50.80
18575;DHT22;9417;16.484;102.872;2024-01-15T07:18:10;30.00;51.50
18575;DHT22;9417;16.484;102.872;2024-01-15T07:20:17;30.00;51.80
18575;DHT22;9417;16.484;102.872;2024-01-15T07:22:25;30.20;51.20
18575;DHT22;9417;16.484;102.872;2024-01-15T07:24:32;30.30;51.20
18575;DHT22;9417;16.484;102.872;2024-01-15T07:26:40;30.40;50.30
18575;DHT22;9417;16.484;102.872;2024-01-15T07:28:50;30.40;50.20
18575;DHT22;9417;16.484;102.872;2024-01-15T07:30:58;30.40;50.80
18575;DHT22;9417;16.484;102.872;2024-01-15T07:33:06;30.40;50.20
18575;DHT22;9417;16.484;102.872;2024-01-15T07:35:14;30.30;51.00
18575;DHT22;9417;16.484;102.872;2024-01-15T07:37:21;30.40;51.60
18575;DHT22;9417;16.484;102.872;2024-01-15T07:39:28;30.30;50.50
18575;DHT22;9417;16.484;102.872;2024-01-15T07:41:36;30.10;51.10
18575;DHT22;9417;16.484;102.872;2024-01-15T07:43:43;30.00;50.90
18575;DHT22;9417;16.484;102.872;2024-01-15T07:45:51;29.90;52.70
18575;DHT22;9417;16.484;102.872;2024-01-15T07:47:58;30.00;52.20
18575;DHT22;9417;16.484;102.872;2024-01-15T07:50:05;30.10;52.00
18575;DHT22;9417;16.484;102.872;2024-01-15T07:52:13;30.20;52.00
18575;DHT22;9417;16.484;102.872;2024-01-15T07:54:20;30.30;52.00
18575;DHT22;9417;16.484;102.872;2024-01-15T07:56:28;30.40;51.10
18575;DHT22;9417;16.484;102.872;2024-01-15T07:58:35;30.50;51.20
18575;DHT22;9417;16.484;102.872;2024-01-15T08:00:42;30.50;49.60
18575;DHT22;9417;16.484;102.872;2024-01-15T08:02:50;30.50;50.10
18575;DHT22;9417;16.484;102.872;2024-01-15T08:04:57;30.40;49.60
18575;DHT22;9417;16.484;102.872;2024-01-15T08:07:08;30.30;49.90
18575;DHT22;9417;16.484;102.872;2024-01-15T08:09:15;30.30;51.10
18575;DHT22;9417;16.484;102.872;2024-01-15T08:11:22;30.20;50.40
18575;DHT22;9417;16.484;102.872;2024-01-15T08:13:29;30.20;50.70
18575;DHT22;9417;16.484;102.872;2024-01-15T08:15:38;30.30;50.50
18575;DHT22;9417;16.484;102.872;2024-01-15T08:17:46;30.30;49.90
18575;DHT22;9417;16.484;102.872;2024-01-15T08:19:55;30.30;49.50
18575;DHT22;9417;16.484;102.872;2024-01-15T08:22:02;30.30;49.60
18575;DHT22;9417;16.484;102.872;2024-01-15T08:24:10;30.20;49.90
18575;DHT22;9417;16.484;102.872;2024-01-15T08:26:17;30.10;50.10
18575;DHT22;9417;16.484;102.872;2024-01-15T08:28:25;30.20;50.70
18575;DHT22;9417;16.484;102.872;2024-01-15T08:30:32;30.10;50.50
18575;DHT22;9417;16.484;102.872;2024-01-15T08:32:39;30.20;50.90
18575;DHT22;9417;16.484;102.872;2024-01-15T08:34:47;30.20;50.50
18575;DHT22;9417;16.484;102.872;2024-01-15T08:36:59;30.30;50.50
18575;DHT22;9417;16.484;102.872;2024-01-15T08:39:07;30.30;49.80
18575;DHT22;9417;16.484;102.872;2024-01-15T08:41:15;30.30;50.40
18575;DHT22;9417;16.484;102.872;2024-01-15T08:43:22;30.20;50.10
18575;DHT22;9417;16.484;102.872;2024-01-15T08:45:29;30.10;49.60
18575;DHT22;9417;16.484;102.872;2024-01-15T08:47:36;30.10;50.80
18575;DHT22;9417;16.484;102.872;2024-01-15T08:49:43;30.10;50.80
18575;DHT22;9417;16.484;102.872;2024-01-15T08:51:53;30.10;50.40
18575;DHT22;9417;16.484;102.872;2024-01-15T08:54:03;30.10;50.60
18575;DHT22;9417;16.484;102.872;2024-01-15T08:56:10;30.00;50.60
18575;DHT22;9417;16.484;102.872;2024-01-15T08:58:18;30.00;50.80
18575;DHT22;9417;16.484;102.872;2024-01-15T09:00:25;30.00;50.80
18575;DHT22;9417;16.484;102.872;2024-01-15T09:02:32;30.10;51.00
18575;DHT22;9417;16.484;102.872;2024-01-15T09:04:38;30.10;50.20
18575;DHT22;9417;16.484;102.872;2024-01-15T09:06:46;30.10;50.20
18575;DHT22;9417;16.484;102.872;2024-01-15T09:08:52;30.10;50.20
18575;DHT22;9417;16.484;102.872;2024-01-15T09:11:02;30.00;49.80
18575;DHT22;9417;16.484;102.872;2024-01-15T09:13:09;30.00;49.90
18575;DHT22;9417;16.484;102.872;2024-01-15T09:15:17;29.90;50.80
18575;DHT22;9417;16.484;102.872;2024-01-15T09:17:24;29.90;50.90
18575;DHT22;9417;16.484;102.872;2024-01-15T09:19:33;29.90;50.90
18575;DHT22;9417;16.484;102.872;2024-01-15T09:21:40;29.80;51.10
18575;DHT22;9417;16.484;102.872;2024-01-15T09:23:47;29.80;51.10
18575;DHT22;9417;16.484;102.872;2024-01-15T09:25:54;29.90;51.10
18575;DHT22;9417;16.484;102.872;2024-01-15T09:28:04;29.90;51.00
18575;DHT22;9417;16.484;102.872;2024-01-15T09:30:13;29.90;50.50
18575;DHT22;9417;16.484;102.872;2024-01-15T09:32:21;29.90;50.70
18575;DHT22;9417;16.484;102.872;2024-01-15T09:34:27;29.90;50.90
18575;DHT22;9417;16.484;102.872;2024-01-15T09:36:40;29.80;51.20
18575;DHT22;9417;16.484;102.872;2024-01-15T09:38:47;29.80;50.20
18575;DHT22;9417;16.484;102.872;2024-01-15T09:40:55;29.70;50.50
18575;DHT22;9417;16.484;102.872;2024-01-15T09:43:04;29.70;50.80
18575;DHT22;9417;16.484;102.872;2024-01-15T09:45:11;29.70;51.10
18575;DHT22;9417;16.484;102.872;2024-01-15T09:47:21;29.70;51.30
18575;DHT22;9417;16.484;102.872;2024-01-15T09:49:30;29.70;51.50
18575;DHT22;9417;16.484;102.872;2024-01-15T09:51:38;29.70;51.30
18575;DHT22;9417;16.484;102.872;2024-01-15T09:53:49;29.60;51.90
18575;DHT22;9417;16.484;102.872;2024-01-15T09:55:57;29.60;51.80
18575;DHT22;9417;16.484;102.872;2024-01-15T09:58:07;29.50;51.90
18575;DHT22;9417;16.484;102.872;2024-01-15T10:00:17;29.50;51.70
18575;DHT22;9417;16.484;102.872;2024-01-15T10:02:24;29.50;52.20
18575;DHT22;9417;16.484;102.872;2024-01-15T10:04:32;29.50;51.90
18575;DHT22;9417;16.484;102.872;2024-01-15T10:06:40;29.40;52.10
18575;DHT22;9417;16.484;102.872;2024-01-15T10:08:52;29.40;52.00
18575;DHT22;9417;16.484;102.872;2024-01-15T10:10:58;29.40;51.90
18575;DHT22;9417;16.484;102.872;2024-01-15T10:13:07;29.40;52.10
18575;DHT22;9417;16.484;102.872;2024-01-15T10:15:14;29.40;52.50
18575;DHT22;9417;16.484;102.872;2024-01-15T10:17:23;29.40;52.70
18575;DHT22;9417;16.484;102.872;2024-01-15T10:19:32;29.30;52.70
18575;DHT22;9417;16.484;102.872;2024-01-15T10:21:39;29.30;52.80
18575;DHT22;9417;16.484;102.872;2024-01-15T10:23:47;29.30;52.80
18575;DHT22;9417;16.484;102.872;2024-01-15T10:25:55;29.30;52.90
18575;DHT22;9417;16.484;102.872;2024-01-15T10:28:06;29.20;53.30
18575;DHT22;9417;16.484;102.872;2024-01-15T10:30:15;29.20;53.20
18575;DHT22;9417;16.484;102.872;2024-01-15T10:32:22;29.20;53.50
18575;DHT22;9417;16.484;102.872;2024-01-15T10:34:31;29.10;53.50
18575;DHT22;9417;16.484;102.872;2024-01-15T10:36:40;29.10;54.00
18575;DHT22;9417;16.484;102.872;2024-01-15T10:38:48;29.00;53.90
18575;DHT22;9417;16.484;102.872;2024-01-15T10:40:55;29.00;54.10
18575;DHT22;9417;16.484;102.872;2024-01-15T10:43:03;29.00;54.20
18575;DHT22;9417;16.484;102.872;2024-01-15T10:45:12;28.90;54.20
18575;DHT22;9417;16.484;102.872;2024-01-15T10:47:20;28.90;55.10
18575;DHT22;9417;16.484;102.872;2024-01-15T10:49:26;28.90;55.50
18575;DHT22;9417;16.484;102.872;2024-01-15T10:51:37;28.80;55.40
18575;DHT22;9417;16.484;102.872;2024-01-15T10:53:45;28.80;55.50
18575;DHT22;9417;16.484;102.872;2024-01-15T10:55:53;28.70;55.70
18575;DHT22;9417;16.484;102.872;2024-01-15T10:58:01;28.70;56.00
18575;DHT22;9417;16.484;102.872;2024-01-15T11:00:11;28.60;55.90
18575;DHT22;9417;16.484;102.872;2024-01-15T11:02:19;28.60;56.40
18575;DHT22;9417;16.484;102.872;2024-01-15T11:04:27;28.60;57.00
18575;DHT22;9417;16.484;102.872;2024-01-15T11:06:43;28.50;57.30
18575;DHT22;9417;16.484;102.872;2024-01-15T11:08:50;28.60;57.60
18575;DHT22;9417;16.484;102.872;2024-01-15T11:10:58;28.50;57.30
18575;DHT22;9417;16.484;102.872;2024-01-15T11:13:09;28.40;57.30
18575;DHT22;9417;16.484;102.872;2024-01-15T11:15:20;28.40;57.30
18575;DHT22;9417;16.484;102.872;2024-01-15T11:17:27;28.40;58.10
18575;DHT22;9417;16.484;102.872;2024-01-15T11:19:55;28.30;58.30
18575;DHT22;9417;16.484;102.872;2024-01-15T11:22:06;28.30;58.20
18575;DHT22;9417;16.484;102.872;2024-01-15T11:24:36;28.30;58.20
18575;DHT22;9417;16.484;102.872;2024-01-15T11:26:45;28.30;58.30
18575;DHT22;9417;16.484;102.872;2024-01-15T11:28:51;28.20;58.60
18575;DHT22;9417;16.484;102.872;2024-01-15T11:31:00;28.10;59.00
18575;DHT22;9417;16.484;102.872;2024-01-15T11:33:34;28.10;59.40
18575;DHT22;9417;16.484;102.872;2024-01-15T11:35:51;28.10;61.70
18575;DHT22;9417;16.484;102.872;2024-01-15T11:37:58;28.00;61.90
18575;DHT22;9417;16.484;102.872;2024-01-15T11:40:06;27.90;60.90
18575;DHT22;9417;16.484;102.872;2024-01-15T11:42:16;27.90;61.20
18575;DHT22;9417;16.484;102.872;2024-01-15T11:44:23;27.90;61.20
18575;DHT22;9417;16.484;102.872;2024-01-15T11:46:35;27.80;61.20
18575;DHT22;9417;16.484;102.872;2024-01-15T11:48:45;27.80;61.10
18575;DHT22;9417;16.484;102.872;2024-01-15T11:50:56;27.70;61.30
18575;DHT22;9417;16.484;102.872;2024-01-15T11:53:09;27.60;61.40
18575;DHT22;9417;16.484;102.872;2024-01-15T11:55:24;27.60;61.50
18575;DHT22;9417;16.484;102.872;2024-01-15T11:57:41;27.60;61.30
18575;DHT22;9417;16.484;102.872;2024-01-15T11:59:49;27.50;61.50
18575;DHT22;9417;16.484;102.872;2024-01-15T12:01:59;27.50;61.50
18575;DHT22;9417;16.484;102.872;2024-01-15T12:04:06;27.40;61.40
18575;DHT22;9417;16.484;102.872;2024-01-15T12:06:13;27.40;61.50
18575;DHT22;9417;16.484;102.872;2024-01-15T12:08:22;27.40;61.70
18575;DHT22;9417;16.484;102.872;2024-01-15T12:10:32;27.40;61.70
18575;DHT22;9417;16.484;102.872;2024-01-15T12:12:49;27.30;61.60
18575;DHT22;9417;16.484;102.872;2024-01-15T12:15:01;27.30;62.00
18575;DHT22;9417;16.484;102.872;2024-01-15T12:17:10;27.30;62.10
18575;DHT22;9417;16.484;102.872;2024-01-15T12:19:18;27.30;61.70
18575;DHT22;9417;16.484;102.872;2024-01-15T12:21:27;27.20;61.80
18575;DHT22;9417;16.484;102.872;2024-01-15T12:23:35;27.20;61.70
18575;DHT22;9417;16.484;102.872;2024-01-15T12:25:42;27.20;61.90
18575;DHT22;9417;16.484;102.872;2024-01-15T12:27:50;27.20;61.90
18575;DHT22;9417;16.484;102.872;2024-01-15T12:29:59;27.30;62.50
18575;DHT22;9417;16.484;102.872;2024-01-15T12:32:06;27.20;62.40
18575;DHT22;9417;16.484;102.872;2024-01-15T12:34:15;27.20;62.40
18575;DHT22;9417;16.484;102.872;2024-01-15T12:36:24;27.20;62.30
18575;DHT22;9417;16.484;102.872;2024-01-15T12:38:32;27.10;62.40
18575;DHT22;9417;16.484;102.872;2024-01-15T12:40:37;27.10;62.70
18575;DHT22;9417;16.484;102.872;2024-01-15T12:42:47;27.10;63.20
18575;DHT22;9417;16.484;102.872;2024-01-15T12:44:56;27.10;63.60
18575;DHT22;9417;16.484;102.872;2024-01-15T12:47:04;27.00;64.50
18575;DHT22;9417;16.484;102.872;2024-01-15T12:49:11;27.00;65.30
18575;DHT22;9417;16.484;102.872;2024-01-15T12:51:24;27.00;65.10
18575;DHT22;9417;16.484;102.872;2024-01-15T12:53:32;26.90;66.40
18575;DHT22;9417;16.484;102.872;2024-01-15T12:55:39;26.90;66.60
18575;DHT22;9417;16.484;102.872;2024-01-15T12:57:46;26.80;67.10
18575;DHT22;9417;16.484;102.872;2024-01-15T12:59:55;26.80;66.00
18575;DHT22;9417;16.484;102.872;2024-01-15T13:02:02;26.70;66.20
18575;DHT22;9417;16.484;102.872;2024-01-15T13:04:09;26.70;66.60
18575;DHT22;9417;16.484;102.872;2024-01-15T13:06:15;26.60;67.00
18575;DHT22;9417;16.484;102.872;2024-01-15T13:08:24;26.50;65.60
18575;DHT22;9417;16.484;102.872;2024-01-15T13:10:34;26.50;65.70
18575;DHT22;9417;16.484;102.872;2024-01-15T13:12:41;26.40;65.60
18575;DHT22;9417;16.484;102.872;2024-01-15T13:14:51;26.40;65.80
18575;DHT22;9417;16.484;102.872;2024-01-15T13:16:59;26.40;66.20